Dawson, Yukon Territory

4:53 PM PDT on October 24, 2014 (GMT -0700)
Dawson | Change Station
CLOSE
Current Station
Airport
Location: Dawson,
Elevation: 1214 ft
Nearby Weather Stations

Elev 1214 ft 64.04 °N, 139.13 °W | Updated 53 minutes ago

Light Snow
Light Snow
25 °F
Feels Like 25 °F
N
0
Wind Variable Wind from North

Tomorrow is forecast to be nearly the same temperature as today.

Today
High -- | Low -- °F
--% Chance of Precip.
Yesterday
High -- | Low -- °F
Precip. -- in
9:34 AM 6:25 PM
New Moon, 1% visible
Pressure 29.93 in
Visibility 20.0 miles
Clouds Few 900 ft
Overcast 3000 ft
Dew Point 19 °F
Humidity 80%
Rainfall 0.00 in
Snow Depth Not available.
UV 0 out of 12
Pollen Not available.
Air Quality Not available.
Flu Activity Not available.
METAR CYDA 242300Z 00000KT 20SM -SN FEW009 OVC030 M04/M07 A2985 RMK ST1SC8 ST TR CLIMAT -4.1/-7.1/TR CM/TR MWE LAST OBS/NXT 251400 UTC SLP135

More Conditions Fewer Conditions

Pressure 29.93 in
Visibility 20.0 miles
Clouds Few 900 ft
Overcast 3000 ft
Dew Point 19 °F
Humidity 80%
Rainfall 0.00 in
Snow Depth Not available.
UV 0 out of 12
Pollen Not available.
Air Quality Not available.
Flu Activity Not available.
METAR CYDA 242300Z 00000KT 20SM -SN FEW009 OVC030 M04/M07 A2985 RMK ST1SC8 ST TR CLIMAT -4.1/-7.1/TR CM/TR MWE LAST OBS/NXT 251400 UTC SLP135

More Conditions Fewer Conditions

10-Day Weather Forecast

Almanac

Astronomy

Oct. 24, 2014 Rise Set
Actual Time 9:34 AM PDT 6:25 PM PDT
Civil Twilight 8:44 AM PDT 7:15 PM PDT
Nautical Twilight 7:48 AM PDT 8:11 PM PDT
Astronomical Twilight 6:53 AM PDT 9:06 PM PDT
Moon 10:37 AM PDT 6:50 PM PDT
Length of Visible Light 10h 31m
Length of Day
8h 50m
Tomorrow will be 6m 28s shorter.
New Moon, 1% of the Moon is Illuminated
Today
New Moon
Oct 30
First Quarter
Nov 6
Full
Nov 14
Last Quarter
Nov 22
New

Today's Extremes

Country Highs Country Lows

Community

WunderPhotos

Upload Photos

1,764,713 photos uploaded!

Nearby

Snow Depth

Not available.

Earthquake Activity

City Distance Mag. Time & Date
No recent earthquake activity has been reported nearby.
Minimum magnitude displayed is 2.5.

Coastal Water Temperatures

Place Temperature
No Stations Reporting

Nearby Weather Stations